CYEG/YEG METAR and TAF weather

Enter ICAO airport designator
Station Type Date Time Source
CYEG METAR 2022/11/26 09:00 UTC NOAA

CYEG 260900Z 26010KT 20SM FEW073 M03/M08 A2986 RMK AC1 SLP146


Station Type Date Time Source
CYEG Decoded METAR 2022/11/26 09:00 UTC NOAA

Edmonton International, Alta., Canada (CYEG) 53-18N 113-35W 723M
Nov 26, 2022 - 04:00 AM EST / 2022.11.26 0900 UTC
Wind: from the W (260 degrees) at 12 MPH (10 KT):0
Visibility: 20 mile(s):0
Sky conditions: mostly clear
Temperature: 26 F (-3 C)
Windchill: 15 F (-9 C):1
Dew Point: 17 F (-8 C)
Relative Humidity: 68%
Pressure (altimeter): 29.86 in. Hg (1011 hPa)
ob: CYEG 260900Z 26010KT 20SM FEW073 M03/M08 A2986 RMK AC1 SLP146
cycle: 9

Station Type Date Time Source
CYEG TAF 2022/11/26 09:46 UTC NOAA

TAF CYEG 260840Z 2609/2706 26008KT P6SM SCT080
BECMG 2618/2620 18010KT
FM262200 18010KT P6SM SCT080 BKN140
FM270000 18012KT P6SM BKN080 OVC140
RMK NXT FCST BY 261200Z

Example: see airport list